EDHK/KEL METAR and TAF weather

Enter ICAO airport designator
Station Type Date Time Source
EDHK METAR 2021/08/01 15:50 UTC NOAA

EDHK 011550Z AUTO 27013KT 9999 // BKN056/// 17/09 Q1006


Station Type Date Time Source
EDHK Decoded METAR 2021/08/01 15:50 UTC NOAA

Kiel / Holtenau Civilian, Germany (EDHK) 54-23N 010-10E
Aug 01, 2021 - 11:50 AM EDT / 2021.08.01 1550 UTC
Wind: from the W (270 degrees) at 15 MPH (13 KT):0
Visibility: greater than 7 mile(s):0
Sky conditions: mostly cloudy
Temperature: 62 F (17 C)
Dew Point: 48 F (9 C)
Relative Humidity: 59%
Pressure (altimeter): 29.71 in. Hg (1006 hPa)
ob: EDHK 011550Z AUTO 27013KT 9999 // BKN056/// 17/09 Q1006
cycle: 16

Station Type Date Time Source
EDHK TAF 2013/08/11 06:39 UTC NOAA

TAF EDHK 110633Z 1106/1118 24005KT 9999 SCT030
BECMG 1106/1109 25010KT
TEMPO 1106/1118 27015G25KT 4500 SHRA BKN012CB

Example: see airport list